Time;durP1;ratioP1;P1;durP2;ratioP2;P2;SDS_P1;SDS_P2;PMS_P1;PMS_P2;Temp;Humidity;BMP_temperature;BMP_pressure;BME280_temperature;BME280_humidity;BME280_pressure;Samples;Min_cycle;Max_cycle;Signal;HPM_P1;HPM_P2
2023/04/15 00:00:06;;;;;;;;;;;8.30;99.90;;;;;;5034949;28;19928;-67
2023/04/15 00:02:31;;;;;;;;;;;8.20;99.90;;;;;;5034376;28;19905;-67
2023/04/15 00:04:57;;;;;;;;;;;8.10;99.90;;;;;;5035265;28;20020;-67
2023/04/15 00:07:22;;;;;;;;;;;8.10;99.90;;;;;;5047719;28;19905;-66
2023/04/15 00:09:48;;;;;;;;;;;8.10;99.90;;;;;;5046300;28;19944;-66
2023/04/15 00:12:13;;;;;;;;;;;8.00;99.90;;;;;;5041945;28;19909;-68
2023/04/15 00:14:39;;;;;;;;;;;8.00;99.90;;;;;;5037831;28;19916;-66
2023/04/15 00:17:04;;;;;;;;;;;8.00;99.90;;;;;;5034640;28;20381;-67
2023/04/15 00:19:30;;;;;;;;;;;8.00;99.90;;;;;;5034705;28;20000;-67
2023/04/15 00:21:56;;;;;;;;;;;8.00;99.90;;;;;;5016630;28;19905;-65
2023/04/15 00:24:22;;;;;;;;;;;8.00;99.90;;;;;;5034688;28;19911;-66
2023/04/15 00:26:47;;;;;;;;;;;7.90;99.90;;;;;;5034247;28;20298;-67
2023/04/15 00:29:14;;;;;;;;;;;7.80;99.90;;;;;;5034451;28;19992;-66
2023/04/15 00:31:39;;;;;;;;;;;7.80;99.90;;;;;;5034201;28;19912;-67
2023/04/15 00:34:05;;;;;;;;;;;7.80;99.90;;;;;;5016030;28;20008;-68
2023/04/15 00:36:30;;;;;;;;;;;7.70;99.90;;;;;;5016377;28;19905;-67
2023/04/15 00:38:56;;;;;;;;;;;7.70;99.90;;;;;;5018588;28;19905;-67
2023/04/15 00:41:22;;;;;;;;;;;7.80;99.90;;;;;;5034258;28;20380;-66
2023/04/15 00:43:47;;;;;;;;;;;7.80;99.90;;;;;;5034567;28;19909;-66
2023/04/15 00:46:14;;;;;;;;;;;7.70;99.90;;;;;;5016546;28;19905;-66
2023/04/15 00:48:40;;;;;;;;;;;7.70;99.90;;;;;;5033170;28;19909;-66
2023/04/15 00:51:06;;;;;;;;;;;7.70;99.90;;;;;;5034126;28;19954;-66
2023/04/15 00:53:31;;;;;;;;;;;7.60;99.90;;;;;;5016187;28;19909;-66
2023/04/15 00:55:57;;;;;;;;;;;7.60;99.90;;;;;;5016134;28;19905;-66
2023/04/15 00:58:23;;;;;;;;;;;7.60;99.90;;;;;;5015936;28;20443;-65
2023/04/15 01:00:53;;;;;;;;;;;7.60;99.90;;;;;;5015935;28;20365;-65
2023/04/15 01:03:18;;;;;;;;;;;7.50;99.90;;;;;;5033781;28;19952;-67
2023/04/15 01:05:44;;;;;;;;;;;7.50;99.90;;;;;;5035135;28;19905;-66
2023/04/15 01:08:10;;;;;;;;;;;7.50;99.90;;;;;;5016807;28;19909;-66
2023/04/15 01:10:35;;;;;;;;;;;7.50;99.90;;;;;;5034197;28;19912;-66
2023/04/15 01:13:01;;;;;;;;;;;7.40;99.90;;;;;;5015913;28;20008;-66
2023/04/15 01:15:27;;;;;;;;;;;7.40;99.90;;;;;;5037010;28;19911;-66
2023/04/15 01:17:52;;;;;;;;;;;7.40;99.90;;;;;;5020037;28;20340;-65
2023/04/15 01:20:19;;;;;;;;;;;7.40;99.90;;;;;;5037734;28;19905;-65
2023/04/15 01:22:44;;;;;;;;;;;7.40;99.90;;;;;;5037819;28;19955;-66
2023/04/15 01:25:16;;;;;;;;;;;7.40;99.90;;;;;;5019742;28;19972;-66
2023/04/15 01:27:42;;;;;;;;;;;7.30;99.90;;;;;;5019635;28;20369;-65
2023/04/15 01:30:08;;;;;;;;;;;7.30;99.90;;;;;;5037768;28;19912;-66
2023/04/15 01:32:33;;;;;;;;;;;7.20;99.90;;;;;;5037510;28;20289;-66
2023/04/15 01:34:59;;;;;;;;;;;7.10;99.90;;;;;;5019593;28;19905;-66
2023/04/15 01:37:25;;;;;;;;;;;7.10;99.90;;;;;;5037184;28;19912;-67
2023/04/15 01:39:50;;;;;;;;;;;7.10;99.90;;;;;;5019981;28;19909;-66
2023/04/15 01:42:16;;;;;;;;;;;7.20;99.90;;;;;;5037666;28;19955;-66
2023/04/15 01:44:41;;;;;;;;;;;7.20;99.90;;;;;;5037503;28;19956;-66
2023/04/15 01:47:07;;;;;;;;;;;7.20;99.90;;;;;;5019501;28;19905;-66
2023/04/15 01:49:33;;;;;;;;;;;7.20;99.90;;;;;;5038266;28;19905;-65
2023/04/15 01:51:58;;;;;;;;;;;7.20;99.90;;;;;;5037761;28;19905;-65
2023/04/15 01:54:23;;;;;;;;;;;7.20;99.90;;;;;;5019907;28;19956;-66
2023/04/15 01:56:49;;;;;;;;;;;7.20;99.90;;;;;;5037547;28;20435;-66
2023/04/15 01:59:14;;;;;;;;;;;7.20;99.90;;;;;;5037588;28;20319;-65
2023/04/15 02:01:40;;;;;;;;;;;7.30;99.90;;;;;;5019762;28;19909;-66
2023/04/15 02:04:06;;;;;;;;;;;7.30;99.90;;;;;;5019861;28;19945;-65
2023/04/15 02:06:32;;;;;;;;;;;7.20;99.90;;;;;;5037584;28;19949;-65
2023/04/15 02:08:57;;;;;;;;;;;7.20;99.90;;;;;;5019075;28;19959;-64
2023/04/15 02:11:23;;;;;;;;;;;7.20;99.90;;;;;;5036893;28;19959;-66
2023/04/15 02:13:49;;;;;;;;;;;7.20;99.90;;;;;;5019149;28;19909;-66
2023/04/15 02:16:15;;;;;;;;;;;7.30;99.90;;;;;;5063492;22;19920;-66
2023/04/15 02:18:41;;;;;;;;;;;7.30;99.90;;;;;;5037917;28;20316;-66
2023/04/15 02:21:07;;;;;;;;;;;7.20;99.90;;;;;;5038953;28;19905;-66
2023/04/15 02:23:33;;;;;;;;;;;7.20;99.90;;;;;;5038708;28;19909;-67
2023/04/15 02:25:59;;;;;;;;;;;7.10;99.90;;;;;;5038234;28;19905;-66
2023/04/15 02:28:24;;;;;;;;;;;7.10;99.90;;;;;;5056571;28;19911;-65
2023/04/15 02:30:51;;;;;;;;;;;7.10;99.90;;;;;;5056674;28;19904;-66
2023/04/15 02:33:16;;;;;;;;;;;7.00;99.90;;;;;;5038149;28;19923;-66
2023/04/15 02:35:44;;;;;;;;;;;6.90;99.90;;;;;;5056440;28;19954;-67
2023/04/15 02:38:10;;;;;;;;;;;6.80;99.90;;;;;;5038063;28;20285;-67
2023/04/15 02:40:36;;;;;;;;;;;6.90;99.90;;;;;;5056204;28;19905;-66
2023/04/15 02:43:01;;;;;;;;;;;6.90;99.90;;;;;;5055938;28;19904;-66
2023/04/15 02:45:27;;;;;;;;;;;6.80;99.90;;;;;;5056166;28;19935;-66
2023/04/15 02:47:53;;;;;;;;;;;6.70;99.90;;;;;;5037686;28;19911;-66
2023/04/15 02:50:19;;;;;;;;;;;6.70;99.90;;;;;;5055802;28;19958;-67
2023/04/15 02:52:45;;;;;;;;;;;6.70;99.90;;;;;;5037779;28;19999;-66
2023/04/15 02:55:11;;;;;;;;;;;7.00;99.90;;;;;;5055881;28;19955;-65
2023/04/15 02:57:38;;;;;;;;;;;7.10;99.90;;;;;;5037736;28;19905;-66
2023/04/15 03:00:04;;;;;;;;;;;7.10;99.90;;;;;;5056035;28;19951;-65
2023/04/15 03:02:32;;;;;;;;;;;7.10;99.90;;;;;;5055815;28;19905;-66
2023/04/15 03:04:58;;;;;;;;;;;6.90;99.90;;;;;;5055619;28;19915;-68
2023/04/15 03:07:23;;;;;;;;;;;6.80;99.90;;;;;;5037652;28;19905;-66
2023/04/15 03:09:49;;;;;;;;;;;6.70;99.90;;;;;;5037688;28;19912;-65
2023/04/15 03:12:14;;;;;;;;;;;6.70;99.90;;;;;;5037820;28;19911;-66
2023/04/15 03:14:40;;;;;;;;;;;6.80;99.90;;;;;;5055884;28;19992;-66
2023/04/15 03:17:05;;;;;;;;;;;6.90;99.90;;;;;;5055509;28;19948;-65
2023/04/15 03:19:30;;;;;;;;;;;6.90;99.90;;;;;;5056741;28;19959;-67
2023/04/15 03:21:56;;;;;;;;;;;6.70;99.90;;;;;;5056523;28;19905;-65
2023/04/15 03:24:21;;;;;;;;;;;6.50;99.90;;;;;;5055384;28;19912;-66
2023/04/15 03:26:47;;;;;;;;;;;6.50;99.90;;;;;;5037660;28;19909;-66
2023/04/15 03:29:12;;;;;;;;;;;6.50;99.90;;;;;;5055192;28;19911;-66
2023/04/15 03:31:38;;;;;;;;;;;6.50;99.90;;;;;;5054960;28;19908;-68
2023/04/15 03:34:03;;;;;;;;;;;6.50;99.90;;;;;;5054719;28;19931;-66
2023/04/15 03:36:31;;;;;;;;;;;6.50;99.90;;;;;;5054382;28;20334;-67
2023/04/15 03:38:57;;;;;;;;;;;6.50;99.90;;;;;;5055406;28;19905;-65
2023/04/15 03:41:22;;;;;;;;;;;6.50;99.90;;;;;;5055085;28;19951;-67
2023/04/15 03:43:50;;;;;;;;;;;6.80;99.90;;;;;;5054866;28;19909;-66
2023/04/15 03:46:16;;;;;;;;;;;6.80;99.90;;;;;;5036992;28;19904;-67
2023/04/15 03:48:42;;;;;;;;;;;6.80;99.90;;;;;;5036624;28;19912;-67
2023/04/15 03:51:07;;;;;;;;;;;6.80;99.90;;;;;;5054825;28;19909;-66
2023/04/15 03:53:33;;;;;;;;;;;6.50;99.90;;;;;;5036968;28;19915;-66
2023/04/15 03:55:58;;;;;;;;;;;6.40;99.90;;;;;;5054817;28;20341;-66
2023/04/15 03:58:24;;;;;;;;;;;6.30;99.90;;;;;;5054590;28;20289;-66
2023/04/15 04:00:50;;;;;;;;;;;6.20;99.90;;;;;;5055001;28;19912;-65
2023/04/15 04:03:16;;;;;;;;;;;6.30;99.90;;;;;;5036825;28;19936;-66
2023/04/15 04:05:42;;;;;;;;;;;6.60;99.90;;;;;;5036686;28;19905;-66
2023/04/15 04:08:08;;;;;;;;;;;6.40;99.90;;;;;;5054713;28;19930;-67
2023/04/15 04:10:34;;;;;;;;;;;6.30;99.90;;;;;;5062917;28;19943;-66
2023/04/15 04:13:00;;;;;;;;;;;6.20;99.90;;;;;;5063253;28;19952;-66
2023/04/15 04:15:25;;;;;;;;;;;6.20;99.90;;;;;;5054324;28;19904;-66
2023/04/15 04:17:51;;;;;;;;;;;6.20;99.90;;;;;;5053812;28;19917;-66
2023/04/15 04:20:16;;;;;;;;;;;6.10;99.90;;;;;;5054156;28;20416;-66
2023/04/15 04:22:42;;;;;;;;;;;6.10;99.90;;;;;;5054226;28;20364;-66
2023/04/15 04:25:08;;;;;;;;;;;6.20;99.90;;;;;;5054192;28;19908;-66
2023/04/15 04:27:34;;;;;;;;;;;6.20;99.90;;;;;;5054359;28;19911;-66
2023/04/15 04:30:00;;;;;;;;;;;6.20;99.90;;;;;;5054536;28;19987;-66
2023/04/15 04:32:26;;;;;;;;;;;6.10;99.90;;;;;;5054502;28;20367;-67
2023/04/15 04:34:51;;;;;;;;;;;6.00;99.90;;;;;;5036668;28;19904;-66
2023/04/15 04:37:17;;;;;;;;;;;5.90;99.90;;;;;;5054385;28;19905;-66
2023/04/15 04:39:42;;;;;;;;;;;5.90;99.90;;;;;;5054198;28;19927;-65
2023/04/15 04:42:07;;;;;;;;;;;5.90;99.90;;;;;;5054320;28;19908;-66
2023/04/15 04:44:33;;;;;;;;;;;5.90;99.90;;;;;;5054409;28;19954;-66
2023/04/15 04:46:58;;;;;;;;;;;5.90;99.90;;;;;;5054092;28;20268;-65
2023/04/15 04:49:24;;;;;;;;;;;5.90;99.90;;;;;;5035735;28;19928;-66
2023/04/15 04:51:50;;;;;;;;;;;5.90;99.90;;;;;;5035782;28;19904;-67
2023/04/15 04:54:16;;;;;;;;;;;5.90;99.90;;;;;;5053996;28;19908;-67
2023/04/15 04:56:41;;;;;;;;;;;5.90;99.90;;;;;;5053874;28;20039;-67
2023/04/15 04:59:07;;;;;;;;;;;5.90;99.90;;;;;;5053963;28;19955;-66
2023/04/15 05:01:33;;;;;;;;;;;5.80;99.90;;;;;;5053958;28;19959;-66
2023/04/15 05:03:59;;;;;;;;;;;5.80;99.90;;;;;;5054233;28;20407;-67
2023/04/15 05:06:25;;;;;;;;;;;5.80;99.90;;;;;;5055135;28;19970;-66
2023/04/15 05:08:50;;;;;;;;;;;5.80;99.90;;;;;;5053674;28;20253;-66
2023/04/15 05:11:16;;;;;;;;;;;5.90;99.90;;;;;;5035524;28;19951;-66
2023/04/15 05:13:41;;;;;;;;;;;5.80;99.90;;;;;;5053923;28;19909;-66
2023/04/15 05:16:07;;;;;;;;;;;5.80;99.90;;;;;;5035356;28;19975;-66
2023/04/15 05:18:32;;;;;;;;;;;5.90;99.90;;;;;;5053202;28;20277;-66
2023/04/15 05:20:58;;;;;;;;;;;6.00;99.90;;;;;;5053388;28;19915;-66
2023/04/15 05:23:23;;;;;;;;;;;6.00;99.90;;;;;;5053556;28;19962;-66
2023/04/15 05:25:49;;;;;;;;;;;6.10;99.90;;;;;;5035430;28;20011;-66
2023/04/15 05:28:14;;;;;;;;;;;6.20;99.90;;;;;;5053261;28;19912;-66
2023/04/15 05:30:40;;;;;;;;;;;6.20;99.90;;;;;;5053510;28;20443;-67
2023/04/15 05:33:05;;;;;;;;;;;6.20;99.90;;;;;;5052821;28;19908;-66
2023/04/15 05:35:31;;;;;;;;;;;6.50;99.90;;;;;;5053399;28;19928;-65
2023/04/15 05:37:56;;;;;;;;;;;6.50;99.90;;;;;;5052993;28;19912;-66
2023/04/15 05:40:22;;;;;;;;;;;6.40;99.90;;;;;;5053234;28;20277;-68
2023/04/15 05:42:47;;;;;;;;;;;6.40;99.90;;;;;;5053155;28;20347;-68
2023/04/15 05:45:13;;;;;;;;;;;6.40;99.90;;;;;;5053143;28;19911;-67
2023/04/15 05:47:38;;;;;;;;;;;6.30;99.90;;;;;;5052759;28;19911;-67
2023/04/15 05:50:04;;;;;;;;;;;6.40;99.90;;;;;;5053263;28;19947;-66
2023/04/15 05:52:32;;;;;;;;;;;6.40;99.90;;;;;;5053355;28;19927;-67
2023/04/15 05:54:58;;;;;;;;;;;6.40;99.90;;;;;;5053065;28;19909;-67
2023/04/15 05:57:23;;;;;;;;;;;6.40;99.90;;;;;;5044599;28;20320;-67
2023/04/15 05:59:51;;;;;;;;;;;6.40;99.90;;;;;;5053578;28;20264;-67
2023/04/15 06:02:17;;;;;;;;;;;6.50;99.90;;;;;;5038396;28;19911;-66
2023/04/15 06:04:42;;;;;;;;;;;6.50;99.90;;;;;;5056710;28;19905;-67
2023/04/15 06:07:08;;;;;;;;;;;6.50;99.90;;;;;;5056553;28;19971;-67
2023/04/15 06:09:34;;;;;;;;;;;6.50;99.90;;;;;;5056554;28;19948;-67
2023/04/15 06:12:00;;;;;;;;;;;6.60;99.90;;;;;;5056677;28;19992;-67
2023/04/15 06:14:26;;;;;;;;;;;6.60;99.90;;;;;;5056362;28;19917;-67
2023/04/15 06:16:51;;;;;;;;;;;6.60;99.90;;;;;;5056048;28;19913;-65
2023/04/15 06:19:17;;;;;;;;;;;6.70;99.90;;;;;;5055915;28;20010;-67
2023/04/15 06:21:43;;;;;;;;;;;6.70;99.90;;;;;;5038299;28;20004;-66
2023/04/15 06:24:08;;;;;;;;;;;6.80;99.90;;;;;;5039588;28;20369;-66
2023/04/15 06:26:34;;;;;;;;;;;6.90;99.90;;;;;;5056384;28;19912;-67
2023/04/15 06:28:59;;;;;;;;;;;7.00;99.90;;;;;;5056281;28;19939;-66
2023/04/15 06:31:25;;;;;;;;;;;7.10;99.90;;;;;;5060898;28;19927;-66
2023/04/15 06:33:50;;;;;;;;;;;7.20;99.90;;;;;;5041463;28;19908;-65
2023/04/15 06:36:15;;;;;;;;;;;7.30;99.90;;;;;;5056117;28;19912;-67
2023/04/15 06:38:41;;;;;;;;;;;7.40;99.90;;;;;;5038808;28;19912;-67
2023/04/15 06:41:06;;;;;;;;;;;7.60;99.90;;;;;;5056586;28;20276;-67
2023/04/15 06:43:32;;;;;;;;;;;7.90;99.90;;;;;;5056588;28;19905;-65
2023/04/15 06:45:57;;;;;;;;;;;7.80;99.90;;;;;;5054212;28;19917;-65
2023/04/15 06:48:23;;;;;;;;;;;7.70;99.90;;;;;;5055220;28;20015;-66
2023/04/15 06:50:48;;;;;;;;;;;7.90;99.90;;;;;;5054991;28;19915;-65
2023/04/15 06:53:14;;;;;;;;;;;8.10;99.90;;;;;;5056089;28;19948;-66
2023/04/15 06:55:40;;;;;;;;;;;8.20;99.90;;;;;;5055792;28;20283;-65
2023/04/15 06:58:05;;;;;;;;;;;8.40;99.90;;;;;;5046869;28;19909;-66
2023/04/15 07:00:32;;;;;;;;;;;8.50;99.90;;;;;;5042337;28;20334;-66
2023/04/15 07:02:59;;;;;;;;;;;8.70;99.90;;;;;;5053734;28;19904;-66
2023/04/15 07:05:25;;;;;;;;;;;8.80;99.90;;;;;;5057498;28;19930;-67
2023/04/15 07:07:51;;;;;;;;;;;9.00;99.90;;;;;;5056568;28;19999;-66
2023/04/15 07:10:17;;;;;;;;;;;9.10;99.90;;;;;;5037530;28;19905;-66
2023/04/15 07:12:42;;;;;;;;;;;9.30;99.90;;;;;;5054914;28;19915;-65
2023/04/15 07:15:08;;;;;;;;;;;9.50;99.90;;;;;;5037544;28;19955;-63
2023/04/15 07:17:33;;;;;;;;;;;9.70;99.90;;;;;;5055071;28;19913;-64
2023/04/15 07:19:59;;;;;;;;;;;9.90;99.90;;;;;;5055639;28;19905;-64
2023/04/15 07:22:25;;;;;;;;;;;9.90;99.90;;;;;;5055712;28;19909;-64
2023/04/15 07:24:50;;;;;;;;;;;10.10;99.90;;;;;;5055237;28;19904;-65
2023/04/15 07:27:16;;;;;;;;;;;10.20;99.90;;;;;;5055320;28;19996;-65
2023/04/15 07:29:42;;;;;;;;;;;10.20;99.90;;;;;;5036945;28;19912;-64
2023/04/15 07:32:09;;;;;;;;;;;10.20;99.90;;;;;;5046760;28;19912;-64
2023/04/15 07:34:34;;;;;;;;;;;10.10;99.90;;;;;;5054833;28;19920;-65
2023/04/15 07:37:00;;;;;;;;;;;10.10;99.90;;;;;;5054136;28;20348;-64
2023/04/15 07:39:26;;;;;;;;;;;10.10;99.90;;;;;;5048227;28;20267;-63
2023/04/15 07:41:51;;;;;;;;;;;10.10;99.90;;;;;;5038179;28;20312;-66
2023/04/15 07:44:17;;;;;;;;;;;10.20;99.90;;;;;;5044055;28;19912;-65
2023/04/15 07:46:42;;;;;;;;;;;10.40;99.90;;;;;;5036975;28;19905;-64
2023/04/15 07:49:08;;;;;;;;;;;10.40;99.90;;;;;;5035815;28;19913;-65
2023/04/15 07:51:33;;;;;;;;;;;10.30;99.90;;;;;;5052793;28;19933;-63
2023/04/15 07:53:59;;;;;;;;;;;10.60;99.90;;;;;;5054713;28;19919;-65
2023/04/15 07:56:25;;;;;;;;;;;10.60;99.90;;;;;;5055080;28;20361;-66
2023/04/15 07:58:50;;;;;;;;;;;10.90;99.90;;;;;;5054555;28;19908;-64
2023/04/15 08:01:16;;;;;;;;;;;11.20;99.90;;;;;;5033462;28;19908;-63
2023/04/15 08:03:42;;;;;;;;;;;11.40;99.90;;;;;;5034788;28;19905;-64
2023/04/15 08:06:07;;;;;;;;;;;11.60;99.90;;;;;;5035183;28;19905;-65
2023/04/15 08:08:32;;;;;;;;;;;11.70;99.90;;;;;;5034704;28;19905;-65
2023/04/15 08:10:58;;;;;;;;;;;11.80;99.70;;;;;;5033792;28;19909;-65
2023/04/15 08:13:24;;;;;;;;;;;12.00;99.40;;;;;;5034021;28;19916;-65
2023/04/15 08:15:52;;;;;;;;;;;12.10;99.00;;;;;;5016910;28;19979;-66
2023/04/15 08:18:18;;;;;;;;;;;12.30;98.90;;;;;;5054557;23;19928;-63
2023/04/15 08:20:43;;;;;;;;;;;12.40;98.20;;;;;;5054523;28;19904;-62
2023/04/15 08:23:08;;;;;;;;;;;12.30;97.70;;;;;;5059003;28;20004;-64
2023/04/15 08:25:34;;;;;;;;;;;12.20;98.20;;;;;;5055923;28;19950;-60
2023/04/15 08:28:02;;;;;;;;;;;12.40;98.20;;;;;;5041673;28;19917;-64
2023/04/15 08:30:28;;;;;;;;;;;12.80;97.60;;;;;;5034129;28;19909;-62
2023/04/15 08:32:54;;;;;;;;;;;13.60;96.70;;;;;;5031616;28;19920;-59
2023/04/15 08:35:20;;;;;;;;;;;14.90;94.90;;;;;;5015538;28;19947;-61
2023/04/15 08:37:45;;;;;;;;;;;15.80;92.90;;;;;;5032456;28;19909;-62
2023/04/15 08:40:11;;;;;;;;;;;16.40;91.60;;;;;;5035161;28;20250;-62
2023/04/15 08:42:41;;;;;;;;;;;17.50;89.00;;;;;;5030589;28;19948;-62
2023/04/15 08:45:07;;;;;;;;;;;17.70;85.90;;;;;;5032009;28;20327;-61
2023/04/15 08:47:34;;;;;;;;;;;18.00;85.30;;;;;;5028476;28;19962;-62
2023/04/15 08:50:03;;;;;;;;;;;19.00;82.00;;;;;;5028338;28;19923;-61
2023/04/15 08:52:29;;;;;;;;;;;20.20;77.90;;;;;;5027771;28;19948;-61
2023/04/15 08:54:56;;;;;;;;;;;20.90;74.00;;;;;;5032501;28;19912;-63
2023/04/15 08:57:24;;;;;;;;;;;21.50;72.10;;;;;;5033135;28;19905;-63
2023/04/15 08:59:50;;;;;;;;;;;22.90;69.10;;;;;;5032938;28;19905;-63
2023/04/15 09:02:16;;;;;;;;;;;23.60;66.00;;;;;;5036424;28;20349;-62
2023/04/15 09:04:41;;;;;;;;;;;21.70;66.00;;;;;;5034911;28;19905;-61
2023/04/15 09:07:06;;;;;;;;;;;21.60;66.60;;;;;;5040738;28;19935;-64
2023/04/15 09:09:32;;;;;;;;;;;21.40;67.00;;;;;;5034396;28;19909;-67
2023/04/15 09:12:00;;;;;;;;;;;21.90;66.50;;;;;;5040161;28;20487;-67
2023/04/15 09:14:28;;;;;;;;;;;21.70;66.10;;;;;;5031310;28;19979;-68
2023/04/15 09:16:57;;;;;;;;;;;21.30;66.00;;;;;;5033095;28;20349;-68
2023/04/15 09:19:23;;;;;;;;;;;20.40;67.10;;;;;;5034016;28;19959;-67
2023/04/15 09:21:50;;;;;;;;;;;20.40;68.20;;;;;;5033559;28;19909;-68
2023/04/15 09:24:15;;;;;;;;;;;19.90;68.80;;;;;;5033412;28;19999;-68
2023/04/15 09:26:41;;;;;;;;;;;19.50;69.60;;;;;;5033177;28;19955;-64
2023/04/15 09:29:13;;;;;;;;;;;18.90;71.00;;;;;;5033798;28;19989;-64
2023/04/15 09:31:40;;;;;;;;;;;18.60;71.70;;;;;;5024293;28;19905;-67
2023/04/15 09:34:05;;;;;;;;;;;18.50;72.80;;;;;;5015914;28;19909;-66
2023/04/15 09:36:50;;;;;;;;;;;18.60;73.00;;;;;;5037030;28;19912;-68
2023/04/15 09:39:16;;;;;;;;;;;19.20;72.20;;;;;;5038199;28;19905;-67
2023/04/15 09:41:43;;;;;;;;;;;19.20;71.50;;;;;;5036713;28;19912;-61
2023/04/15 09:44:24;;;;;;;;;;;18.60;72.70;;;;;;5037023;28;19923;-63
2023/04/15 09:46:49;;;;;;;;;;;17.60;74.70;;;;;;5036865;28;19905;-63
2023/04/15 09:49:16;;;;;;;;;;;17.70;75.90;;;;;;5037471;28;20404;-69
2023/04/15 09:51:42;;;;;;;;;;;17.50;77.20;;;;;;5037238;28;19913;-67
2023/04/15 09:54:08;;;;;;;;;;;17.20;78.00;;;;;;5010359;28;19913;-66
2023/04/15 09:56:40;;;;;;;;;;;16.90;79.30;;;;;;5027836;28;19916;-65
2023/04/15 09:59:07;;;;;;;;;;;17.00;79.90;;;;;;5026083;28;20008;-66
2023/04/15 10:01:32;;;;;;;;;;;17.00;80.30;;;;;;5017492;28;19988;-66
2023/04/15 10:04:00;;;;;;;;;;;16.90;80.70;;;;;;5025248;28;19937;-66
2023/04/15 10:06:26;;;;;;;;;;;17.10;81.70;;;;;;5011033;28;19909;-63
2023/04/15 10:08:52;;;;;;;;;;;17.30;81.30;;;;;;5031228;28;20023;-61
2023/04/15 10:11:18;;;;;;;;;;;17.40;81.00;;;;;;5036893;28;19905;-63
2023/04/15 10:13:45;;;;;;;;;;;17.60;80.70;;;;;;5037031;28;19916;-63
2023/04/15 10:16:12;;;;;;;;;;;18.20;80.20;;;;;;5036803;28;19956;-67
2023/04/15 10:18:39;;;;;;;;;;;18.10;79.90;;;;;;5018236;28;19967;-67
2023/04/15 10:21:05;;;;;;;;;;;18.10;80.00;;;;;;5036613;28;19905;-67
2023/04/15 10:23:31;;;;;;;;;;;18.00;79.70;;;;;;5036325;28;19905;-66
2023/04/15 10:25:57;;;;;;;;;;;17.80;77.80;;;;;;5036517;28;20069;-66
2023/04/15 10:28:23;;;;;;;;;;;17.70;78.80;;;;;;5036523;28;19912;-65
2023/04/15 10:30:48;;;;;;;;;;;17.90;78.60;;;;;;5036518;28;19905;-69
2023/04/15 10:33:16;;;;;;;;;;;17.90;78.60;;;;;;5035865;28;19915;-67
2023/04/15 10:35:42;;;;;;;;;;;17.80;78.60;;;;;;5036385;28;19905;-67
2023/04/15 10:38:26;;;;;;;;;;;18.10;77.40;;;;;;5036888;28;19909;-67
2023/04/15 10:40:51;;;;;;;;;;;18.20;76.90;;;;;;5036146;28;19952;-66
2023/04/15 10:43:24;;;;;;;;;;;18.80;76.00;;;;;;5036156;28;19916;-64
2023/04/15 10:45:49;;;;;;;;;;;19.40;75.30;;;;;;5035802;28;19921;-68
2023/04/15 10:48:15;;;;;;;;;;;19.60;73.80;;;;;;5035504;28;19911;-66
2023/04/15 10:50:54;;;;;;;;;;;19.50;74.30;;;;;;5035987;28;19951;-66
2023/04/15 10:53:25;;;;;;;;;;;20.10;73.80;;;;;;5035748;28;19913;-65
2023/04/15 10:55:51;;;;;;;;;;;20.20;73.00;;;;;;5029666;28;20332;-66
2023/04/15 10:58:16;;;;;;;;;;;20.50;73.00;;;;;;5026843;28;19917;-66
2023/04/15 11:00:48;;;;;;;;;;;20.90;71.70;;;;;;5019835;28;19917;-66
2023/04/15 11:03:14;;;;;;;;;;;21.00;71.00;;;;;;5018117;28;19975;-66
2023/04/15 11:05:40;;;;;;;;;;;21.10;70.00;;;;;;5035512;28;19915;-65
2023/04/15 11:08:06;;;;;;;;;;;21.30;69.60;;;;;;5017559;28;19915;-64
2023/04/15 11:10:32;;;;;;;;;;;21.00;70.20;;;;;;5035755;28;19905;-68
2023/04/15 11:13:20;;;;;;;;;;;20.40;71.10;;;;;;5035823;28;19915;-68
2023/04/15 11:15:46;;;;;;;;;;;19.60;71.20;;;;;;5035649;28;19905;-64
2023/04/15 11:18:19;;;;;;;;;;;19.20;70.70;;;;;;5035286;28;19913;-66
2023/04/15 11:20:52;;;;;;;;;;;18.90;71.70;;;;;;5033303;28;20332;-64
2023/04/15 11:23:19;;;;;;;;;;;18.90;72.00;;;;;;5026956;28;19912;-64
2023/04/15 11:25:44;;;;;;;;;;;18.70;72.00;;;;;;5019559;28;19912;-64
2023/04/15 11:28:11;;;;;;;;;;;18.70;74.00;;;;;;5032715;28;19913;-64
2023/04/15 11:30:36;;;;;;;;;;;18.20;69.90;;;;;;5030375;28;19955;-64
2023/04/15 11:33:05;;;;;;;;;;;17.90;69.80;;;;;;5017097;28;20293;-64
2023/04/15 11:35:33;;;;;;;;;;;17.70;69.80;;;;;;5035721;28;19927;-64
2023/04/15 11:38:02;;;;;;;;;;;17.70;70.70;;;;;;5017374;28;19947;-64
2023/04/15 11:40:28;;;;;;;;;;;17.60;71.10;;;;;;5034657;28;19916;-65
2023/04/15 11:43:26;;;;;;;;;;;17.40;72.50;;;;;;5035163;28;19979;-63
2023/04/15 11:45:51;;;;;;;;;;;17.40;73.20;;;;;;4958086;28;19913;-67
2023/04/15 11:48:17;;;;;;;;;;;17.40;72.90;;;;;;4973799;28;19910;-66
2023/04/15 11:50:43;;;;;;;;;;;17.50;73.40;;;;;;4974410;28;20282;-62
2023/04/15 11:53:10;;;;;;;;;;;17.40;73.60;;;;;;4973890;28;20005;-66
2023/04/15 11:55:45;;;;;;;;;;;17.40;74.30;;;;;;4973931;28;19914;-67
2023/04/15 11:58:17;;;;;;;;;;;17.40;75.10;;;;;;4973559;28;20342;-66
2023/04/15 12:00:53;;;;;;;;;;;17.30;74.10;;;;;;4973898;28;19906;-67
2023/04/15 12:03:26;;;;;;;;;;;17.20;73.80;;;;;;4973369;28;19906;-64
2023/04/15 12:06:10;;;;;;;;;;;17.00;73.20;;;;;;4972865;28;19913;-64
2023/04/15 12:08:47;;;;;;;;;;;17.00;73.80;;;;;;4972018;28;19913;-64
2023/04/15 12:11:14;;;;;;;;;;;16.90;73.30;;;;;;4975094;28;19906;-63
2023/04/15 12:13:46;;;;;;;;;;;16.80;72.80;;;;;;4976059;28;19910;-66
2023/04/15 12:16:11;;;;;;;;;;;17.00;73.10;;;;;;4975967;28;20390;-64
2023/04/15 12:18:37;;;;;;;;;;;17.20;71.40;;;;;;4976568;28;19937;-64
2023/04/15 12:21:09;;;;;;;;;;;17.20;71.20;;;;;;4998856;28;19905;-64
2023/04/15 12:23:51;;;;;;;;;;;17.10;70.80;;;;;;5040493;28;19913;-64
2023/04/15 12:26:27;;;;;;;;;;;17.30;71.20;;;;;;5007276;28;19909;-69
2023/04/15 12:29:02;;;;;;;;;;;17.70;69.90;;;;;;5033421;28;19914;-68
2023/04/15 12:31:28;;;;;;;;;;;17.90;69.30;;;;;;5027029;28;19936;-69
2023/04/15 12:33:57;;;;;;;;;;;17.80;70.50;;;;;;5031658;28;19916;-67
2023/04/15 12:36:23;;;;;;;;;;;17.80;69.70;;;;;;5028960;28;19909;-69
2023/04/15 12:38:49;;;;;;;;;;;17.50;70.10;;;;;;5037004;28;20321;-67
2023/04/15 12:41:15;;;;;;;;;;;17.30;69.30;;;;;;5037206;28;19959;-66
2023/04/15 12:43:41;;;;;;;;;;;17.20;69.10;;;;;;5036879;28;19905;-67
2023/04/15 12:46:07;;;;;;;;;;;17.20;69.60;;;;;;5039868;28;19905;-69
2023/04/15 12:48:33;;;;;;;;;;;17.20;69.30;;;;;;5036992;28;20288;-69
2023/04/15 12:50:59;;;;;;;;;;;17.40;68.40;;;;;;5036990;28;19940;-71
2023/04/15 12:53:25;;;;;;;;;;;17.40;68.70;;;;;;5040509;28;19999;-68
2023/04/15 12:55:51;;;;;;;;;;;17.40;68.30;;;;;;5018384;28;19960;-69
2023/04/15 12:58:16;;;;;;;;;;;17.50;67.40;;;;;;5037796;28;19904;-71
2023/04/15 13:00:42;;;;;;;;;;;17.60;67.20;;;;;;5039702;28;19911;-69
2023/04/15 13:03:07;;;;;;;;;;;17.60;67.00;;;;;;5036695;28;19913;-68
2023/04/15 13:05:33;;;;;;;;;;;17.60;67.00;;;;;;5028302;28;20019;-69
2023/04/15 13:07:58;;;;;;;;;;;17.60;67.30;;;;;;5035042;28;19909;-68
2023/04/15 13:10:23;;;;;;;;;;;17.70;66.70;;;;;;5042864;28;19951;-67
2023/04/15 13:12:52;;;;;;;;;;;17.80;65.80;;;;;;5026195;28;19948;-66
2023/04/15 13:15:19;;;;;;;;;;;17.70;66.00;;;;;;5040080;28;19916;-66
2023/04/15 13:17:45;;;;;;;;;;;17.60;65.30;;;;;;5036638;28;19912;-65
2023/04/15 13:20:11;;;;;;;;;;;17.50;66.30;;;;;;5036302;28;19986;-65
2023/04/15 13:22:36;;;;;;;;;;;17.40;66.50;;;;;;5038366;28;20067;-66
2023/04/15 13:25:02;;;;;;;;;;;17.40;67.20;;;;;;5041905;28;19905;-67
2023/04/15 13:27:27;;;;;;;;;;;17.20;68.00;;;;;;5024528;28;19952;-66
2023/04/15 13:29:53;;;;;;;;;;;16.90;69.30;;;;;;5018310;28;20004;-66
2023/04/15 13:32:18;;;;;;;;;;;16.70;69.20;;;;;;5018740;28;19927;-66
2023/04/15 13:34:44;;;;;;;;;;;16.50;70.40;;;;;;5020226;28;19967;-69
2023/04/15 13:37:09;;;;;;;;;;;16.40;71.70;;;;;;5003440;28;19905;-69
2023/04/15 13:39:35;;;;;;;;;;;16.30;71.90;;;;;;5020164;28;19956;-70
2023/04/15 13:42:01;;;;;;;;;;;16.20;72.60;;;;;;5019766;28;20310;-68
2023/04/15 13:44:27;;;;;;;;;;;16.10;74.00;;;;;;5021274;28;19984;-69
2023/04/15 13:46:52;;;;;;;;;;;16.00;73.90;;;;;;5021368;28;20339;-69
2023/04/15 13:49:18;;;;;;;;;;;16.00;73.70;;;;;;5005213;28;19909;-68
2023/04/15 13:51:43;;;;;;;;;;;16.00;74.20;;;;;;5021572;28;20359;-69
2023/04/15 13:54:09;;;;;;;;;;;16.00;74.60;;;;;;5004826;28;19948;-69
2023/04/15 13:56:34;;;;;;;;;;;15.90;75.00;;;;;;5023847;28;19905;-70
2023/04/15 13:59:01;;;;;;;;;;;15.70;75.80;;;;;;5019196;28;19905;-69
2023/04/15 14:01:27;;;;;;;;;;;15.70;76.40;;;;;;5016254;28;19940;-70
2023/04/15 14:03:52;;;;;;;;;;;15.50;77.50;;;;;;5017832;28;19905;-70
2023/04/15 14:06:18;;;;;;;;;;;15.50;77.40;;;;;;5017767;28;19906;-69
2023/04/15 14:08:43;;;;;;;;;;;15.40;77.70;;;;;;5016182;28;20370;-69
2023/04/15 14:11:08;;;;;;;;;;;15.30;77.70;;;;;;5017610;28;19910;-70
2023/04/15 14:13:34;;;;;;;;;;;15.20;77.80;;;;;;5018045;28;19963;-69
2023/04/15 14:16:00;;;;;;;;;;;15.10;77.60;;;;;;4999664;28;20328;-69
2023/04/15 14:18:26;;;;;;;;;;;15.10;78.00;;;;;;5008808;28;19920;-68